Time;durP1;ratioP1;P1;durP2;ratioP2;P2;SDS_P1;SDS_P2;PMS_P1;PMS_P2;Temp;Humidity;BMP_temperature;BMP_pressure;BME280_temperature;BME280_humidity;BME280_pressure;Samples;Min_cycle;Max_cycle;Signal;HPM_P1;HPM_P2
2021/06/04 00:01:46;;;;;;;7.40;6.63;;;;;;;20.24;91.96;99725.13;4953252;28;20523;-73
2021/06/04 00:04:13;;;;;;;8.60;7.40;;;;;;;20.19;92.27;99728.31;4953532;28;20468;-72
2021/06/04 00:06:39;;;;;;;8.18;7.38;;;;;;;20.16;92.46;99727.72;4949747;29;20895;-72
2021/06/04 00:09:09;;;;;;;9.70;7.87;;;;;;;20.13;93.03;99728.88;4938278;29;20566;-73
2021/06/04 00:11:39;;;;;;;8.67;7.97;;;;;;;20.20;93.04;99737.38;4937654;29;20478;-73
2021/06/04 00:14:08;;;;;;;8.57;7.87;;;;;;;20.19;92.56;99721.97;4938112;29;20448;-72
2021/06/04 00:16:38;;;;;;;8.43;7.63;;;;;;;20.08;93.12;99725.75;4937435;29;20452;-72
2021/06/04 00:19:10;;;;;;;9.07;7.80;;;;;;;19.87;95.19;99727.78;4937752;29;20441;-72
2021/06/04 00:21:39;;;;;;;9.73;7.77;;;;;;;19.68;96.74;99710.38;4953021;28;20447;-73
2021/06/04 00:24:08;;;;;;;9.57;8.53;;;;;;;19.53;98.14;99714.53;4956575;28;20452;-73
2021/06/04 00:26:38;;;;;;;9.10;8.17;;;;;;;19.49;98.87;99724.03;4956630;28;20515;-74
2021/06/04 00:29:05;;;;;;;8.25;7.50;;;;;;;19.76;96.72;99721.47;4949912;28;20836;-74
2021/06/04 00:31:32;;;;;;;8.63;7.83;;;;;;;19.73;96.46;99719.03;4937199;29;20190;-73
2021/06/04 00:34:00;;;;;;;8.53;7.73;;;;;;;19.55;97.25;99716.13;4937537;29;20429;-72
2021/06/04 00:36:26;;;;;;;9.27;8.40;;;;;;;19.52;97.79;99719.16;4937493;29;21006;-73
2021/06/04 00:38:53;;;;;;;8.50;7.80;;;;;;;19.41;98.26;99711.09;4937071;29;20516;-72
2021/06/04 00:41:24;;;;;;;9.15;8.25;;;;;;;19.41;98.63;99718.44;4937004;29;20483;-73
2021/06/04 00:43:51;;;;;;;7.82;7.18;;;;;;;19.55;97.57;99710.66;4937376;29;20608;-72
2021/06/04 00:46:18;;;;;;;8.37;7.63;;;;;;;19.62;96.70;99715.56;4937276;29;20299;-72
2021/06/04 00:48:44;;;;;;;9.07;8.27;;;;;;;19.63;96.75;99707.22;4936834;29;20545;-72
2021/06/04 00:51:17;;;;;;;9.13;8.32;;;;;;;19.62;96.95;99705.47;4953333;29;20440;-73
2021/06/04 00:53:45;;;;;;;9.40;8.50;;;;;;;19.73;96.05;99709.97;4956061;28;20196;-72
2021/06/04 00:56:12;;;;;;;9.80;9.00;;;;;;;19.53;97.16;99709.06;4956339;28;20888;-72
2021/06/04 00:58:43;;;;;;;10.05;8.90;;;;;;;19.46;98.75;99702.47;4956380;28;20188;-73
2021/06/04 01:01:11;;;;;;;9.10;8.30;;;;;;;19.50;98.46;99709.38;4956369;29;20198;-73
2021/06/04 01:03:42;;;;;;;9.40;8.60;;;;;;;19.62;97.94;99715.56;4955826;29;20256;-73
2021/06/04 01:06:15;;;;;;;9.05;8.25;;;;;;;19.49;97.72;99711.25;4956150;29;20219;-72
2021/06/04 01:08:55;;;;;;;9.10;8.30;;;;;;;19.43;98.17;99710.97;4956226;28;20236;-73
2021/06/04 01:11:34;;;;;;;9.43;8.43;;;;;;;19.46;97.49;99710.66;4956150;28;20588;-73
2021/06/04 01:14:11;;;;;;;9.23;8.30;;;;;;;19.50;97.21;99714.84;4955979;29;20511;-73
2021/06/04 01:16:45;;;;;;;12.03;8.97;;;;;;;19.46;97.19;99713.41;4955663;28;20192;-73
2021/06/04 01:19:33;;;;;;;8.15;7.43;;;;;;;19.26;98.24;99716.09;4955740;29;20436;-73
2021/06/04 01:22:05;;;;;;;9.18;8.45;;;;;;;19.42;97.96;99712.81;4936716;29;20258;-73
2021/06/04 01:24:53;;;;;;;9.18;8.38;;;;;;;19.34;98.01;99723.59;4936437;29;20203;-73
2021/06/04 01:27:28;;;;;;;9.00;8.20;;;;;;;19.24;98.75;99720.84;4937868;29;20552;-73
2021/06/04 01:30:04;;;;;;;9.15;8.45;;;;;;;19.07;100.00;99722.41;4936541;29;20185;-73
2021/06/04 01:32:34;;;;;;;9.68;8.88;;;;;;;19.19;100.00;99717.69;4936183;29;20192;-72
2021/06/04 01:35:07;;;;;;;8.88;8.07;;;;;;;19.34;98.21;99716.25;4937000;29;20283;-73
2021/06/04 01:37:34;;;;;;;9.30;8.47;;;;;;;19.30;98.26;99711.22;4936177;29;20199;-73
2021/06/04 01:40:05;;;;;;;8.57;7.82;;;;;;;19.37;97.50;99709.66;4935971;29;20527;-73
2021/06/04 01:42:36;;;;;;;9.60;8.60;;;;;;;19.46;96.24;99716.97;4936421;29;20653;-72
2021/06/04 01:45:09;;;;;;;10.05;7.75;;;;;;;19.25;96.64;99728.03;4936302;29;20433;-73
2021/06/04 01:47:44;;;;;;;7.53;6.93;;;;;;;19.36;96.13;99725.19;4935773;29;20229;-74
2021/06/04 01:50:19;;;;;;;11.10;8.30;;;;;;;19.26;96.67;99724.28;4937383;29;20432;-73
2021/06/04 01:52:46;;;;;;;9.48;8.57;;;;;;;19.29;96.42;99720.44;4935919;29;20199;-73
2021/06/04 01:55:18;;;;;;;9.07;8.27;;;;;;;19.25;96.54;99721.72;4936151;29;20250;-73
2021/06/04 01:57:49;;;;;;;9.73;8.83;;;;;;;19.26;96.81;99717.97;4936245;29;20539;-74
2021/06/04 02:00:20;;;;;;;10.63;9.52;;;;;;;19.36;96.13;99727.06;4935925;29;20433;-73
2021/06/04 02:02:47;;;;;;;10.77;9.37;;;;;;;19.32;96.03;99720.16;4935540;29;20189;-72
2021/06/04 02:05:18;;;;;;;11.10;10.10;;;;;;;19.35;96.15;99723.44;4939429;29;20440;-73
2021/06/04 02:07:45;;;;;;;10.73;9.60;;;;;;;19.11;97.70;99721.13;4938790;29;20557;-72
2021/06/04 02:10:17;;;;;;;10.00;9.00;;;;;;;19.13;97.45;99723.69;4936009;29;20236;-73
2021/06/04 02:12:46;;;;;;;10.30;9.30;;;;;;;19.18;97.34;99724.16;4935443;29;20575;-73
2021/06/04 02:15:19;;;;;;;9.27;8.47;;;;;;;19.32;96.41;99733.78;4935739;29;20619;-72
2021/06/04 02:17:54;;;;;;;9.65;8.63;;;;;;;19.11;96.93;99736.66;4935646;29;20472;-73
2021/06/04 02:20:25;;;;;;;8.43;7.63;;;;;;;19.16;96.13;99731.63;4935781;29;20239;-73
2021/06/04 02:23:03;;;;;;;8.48;7.70;;;;;;;19.10;96.63;99741.22;4935196;29;20430;-72
2021/06/04 02:25:43;;;;;;;8.60;7.80;;;;;;;19.33;95.59;99746.44;4939575;29;20646;-73
2021/06/04 02:28:17;;;;;;;9.50;8.25;;;;;;;19.46;94.24;99744.28;4954047;28;20476;-73
2021/06/04 02:30:54;;;;;;;9.30;8.27;;;;;;;19.32;95.02;99733.78;4954614;29;20243;-73
2021/06/04 02:33:30;;;;;;;9.80;8.90;;;;;;;19.22;95.16;99727.44;4954559;29;20673;-72
2021/06/04 02:36:01;;;;;;;9.10;8.40;;;;;;;19.40;94.28;99730.34;4954610;29;20184;-72
2021/06/04 02:38:32;;;;;;;9.50;8.68;;;;;;;19.25;94.75;99725.31;4954446;29;20826;-72
2021/06/04 02:41:02;;;;;;;10.40;9.23;;;;;;;19.13;95.71;99724.59;4954191;28;20200;-73
2021/06/04 02:43:34;;;;;;;10.07;9.18;;;;;;;19.00;96.63;99725.84;4954405;29;20917;-72
2021/06/04 02:46:06;;;;;;;9.32;8.52;;;;;;;18.95;97.19;99729.00;4954023;29;20303;-72
2021/06/04 02:48:33;;;;;;;10.07;9.02;;;;;;;18.74;98.65;99731.75;4954093;28;20223;-74
2021/06/04 02:51:08;;;;;;;9.63;8.73;;;;;;;18.60;99.65;99721.22;4954042;29;20620;-74
2021/06/04 02:53:38;;;;;;;9.68;8.77;;;;;;;18.58;100.00;99725.97;4954604;29;20222;-74
2021/06/04 02:56:10;;;;;;;9.30;8.48;;;;;;;18.65;99.32;99732.56;4954379;29;20191;-74
2021/06/04 02:58:37;;;;;;;9.60;8.63;;;;;;;18.66;99.56;99731.59;4954095;28;20291;-73
2021/06/04 03:01:07;;;;;;;9.20;8.40;;;;;;;18.64;99.20;99733.59;4953912;29;20211;-73
2021/06/04 03:03:34;;;;;;;9.38;8.50;;;;;;;18.60;99.70;99732.13;4954017;29;20295;-73
2021/06/04 03:06:00;;;;;;;9.73;8.82;;;;;;;18.49;100.00;99727.63;4954095;28;20721;-73
2021/06/04 03:08:27;;;;;;;10.20;9.30;;;;;;;18.39;100.00;99727.59;4953992;29;20214;-73
2021/06/04 03:10:56;;;;;;;10.20;9.30;;;;;;;18.42;100.00;99732.78;4953765;28;20193;-73
2021/06/04 03:13:29;;;;;;;10.07;9.18;;;;;;;18.60;100.00;99748.50;4953750;29;20191;-72
2021/06/04 03:15:58;;;;;;;10.63;9.73;;;;;;;18.63;100.00;99750.94;4954036;29;20274;-72
2021/06/04 03:18:28;;;;;;;10.73;9.52;;;;;;;18.64;100.00;99747.22;4954145;29;21030;-72
2021/06/04 03:20:56;;;;;;;10.05;9.18;;;;;;;18.58;100.00;99743.16;4952116;29;20196;-72
2021/06/04 03:23:36;;;;;;;11.55;9.60;;;;;;;18.50;100.00;99738.41;4953776;29;20294;-73
2021/06/04 03:26:05;;;;;;;9.68;8.88;;;;;;;18.33;100.00;99739.03;4934813;29;20563;-72
2021/06/04 03:28:32;;;;;;;10.40;9.40;;;;;;;18.42;100.00;99738.22;4934881;29;20253;-73
2021/06/04 03:30:59;;;;;;;10.00;9.20;;;;;;;18.43;100.00;99731.78;4934478;29;20206;-74
2021/06/04 03:33:31;;;;;;;9.85;8.93;;;;;;;18.36;100.00;99725.16;4935751;29;20200;-74
2021/06/04 03:35:58;;;;;;;10.02;9.10;;;;;;;18.36;100.00;99725.16;4934353;29;20196;-73
2021/06/04 03:38:24;;;;;;;10.88;9.85;;;;;;;18.58;100.00;99721.34;4934624;29;20213;-72
2021/06/04 03:40:50;;;;;;;9.85;8.95;;;;;;;18.70;99.14;99731.19;4937833;29;20295;-73
2021/06/04 03:43:19;;;;;;;9.05;8.25;;;;;;;18.90;97.47;99733.97;4938756;29;20725;-73
2021/06/04 03:45:47;;;;;;;10.70;9.70;;;;;;;19.02;97.00;99737.50;4938370;29;20319;-73
2021/06/04 03:48:17;;;;;;;10.10;9.20;;;;;;;19.04;96.92;99732.72;4938548;29;20613;-73
2021/06/04 03:50:45;;;;;;;11.60;10.50;;;;;;;19.07;96.71;99746.97;4939313;29;20400;-72
2021/06/04 03:53:12;;;;;;;10.85;9.85;;;;;;;19.11;96.31;99750.28;4938225;29;20284;-73
2021/06/04 03:55:39;;;;;;;9.60;8.70;;;;;;;19.19;94.78;99755.88;4937892;29;20195;-73
2021/06/04 03:58:06;;;;;;;9.10;8.40;;;;;;;18.99;95.58;99751.38;4937858;29;20196;-73
2021/06/04 04:00:37;;;;;;;9.37;8.40;;;;;;;19.23;95.12;99751.88;4937670;29;20214;-72
2021/06/04 04:03:04;;;;;;;9.05;8.15;;;;;;;19.40;93.72;99758.50;4938126;29;20840;-74
2021/06/04 04:05:31;;;;;;;9.07;8.23;;;;;;;19.47;92.72;99761.53;4938011;29;20186;-71
2021/06/04 04:07:59;;;;;;;10.97;9.80;;;;;;;19.30;93.77;99754.91;4955653;29;20448;-72
2021/06/04 04:10:28;;;;;;;10.87;9.10;;;;;;;19.36;94.84;99757.94;4956868;29;20443;-72
2021/06/04 04:12:54;;;;;;;11.05;10.13;;;;;;;19.47;93.28;99762.41;4956788;29;20541;-72
2021/06/04 04:15:22;;;;;;;10.48;9.38;;;;;;;19.38;93.78;99753.19;4956848;29;20244;-73
2021/06/04 04:17:50;;;;;;;10.27;9.40;;;;;;;19.52;93.50;99759.25;4956532;28;20290;-74
2021/06/04 04:20:21;;;;;;;11.75;9.48;;;;;;;19.67;92.28;99766.03;4951956;29;20201;-73
2021/06/04 04:22:47;;;;;;;11.95;9.70;;;;;;;19.63;92.39;99770.03;4937530;29;20194;-73
2021/06/04 04:25:15;;;;;;;12.32;10.25;;;;;;;19.64;92.01;99779.94;4937317;29;20213;-73
2021/06/04 04:27:42;;;;;;;9.75;8.85;;;;;;;19.48;92.34;99785.97;4937294;29;20216;-73
2021/06/04 04:30:11;;;;;;;10.25;8.90;;;;;;;19.20;93.88;99784.94;4937598;29;20601;-73
2021/06/04 04:32:38;;;;;;;9.90;8.25;;;;;;;19.08;93.87;99786.88;4941759;29;20217;-74
2021/06/04 04:35:06;;;;;;;9.60;8.63;;;;;;;19.12;94.24;99776.56;4954048;29;20208;-74
2021/06/04 04:37:32;;;;;;;10.95;9.85;;;;;;;18.83;96.26;99774.59;4955646;28;20189;-72
2021/06/04 04:39:58;;;;;;;9.43;8.52;;;;;;;18.84;96.88;99781.78;4956464;29;20201;-72
2021/06/04 04:42:26;;;;;;;9.30;8.50;;;;;;;18.98;95.99;99787.88;4956447;28;20247;-73
2021/06/04 04:44:52;;;;;;;9.88;8.98;;;;;;;19.07;95.31;99784.31;4956588;29;20192;-74
2021/06/04 04:47:22;;;;;;;10.98;8.85;;;;;;;19.30;93.91;99784.94;4956701;29;20279;-73
2021/06/04 04:49:48;;;;;;;9.73;8.82;;;;;;;19.48;92.22;99783.25;4955890;29;20189;-72
2021/06/04 04:52:15;;;;;;;9.48;8.35;;;;;;;19.45;92.47;99779.94;4955119;28;20191;-72
2021/06/04 04:54:43;;;;;;;9.52;8.63;;;;;;;19.47;92.09;99777.91;4956015;28;20607;-73
2021/06/04 04:57:10;;;;;;;11.53;9.60;;;;;;;19.56;91.85;99777.94;4955685;28;20275;-73
2021/06/04 04:59:39;;;;;;;9.70;8.70;;;;;;;19.45;91.98;99777.22;4956207;28;20468;-71
2021/06/04 05:02:05;;;;;;;9.93;9.02;;;;;;;19.37;93.03;99770.56;4956214;28;20788;-72
2021/06/04 05:04:32;;;;;;;10.67;9.70;;;;;;;19.39;92.75;99778.63;4955893;28;20185;-73
2021/06/04 05:06:58;;;;;;;10.00;9.10;;;;;;;19.43;92.78;99773.75;4954139;28;21000;-73
2021/06/04 05:09:24;;;;;;;9.77;8.83;;;;;;;19.45;93.34;99771.75;4955872;28;20450;-74
2021/06/04 05:11:51;;;;;;;10.82;9.73;;;;;;;19.49;92.42;99770.44;4955583;28;20480;-74
2021/06/04 05:14:18;;;;;;;11.37;10.30;;;;;;;19.43;92.63;99773.75;4956234;28;20193;-74
2021/06/04 05:16:45;;;;;;;11.65;10.38;;;;;;;19.48;94.23;99771.47;4955841;28;20466;-73
2021/06/04 05:19:11;;;;;;;9.93;9.02;;;;;;;19.56;92.85;99777.09;4955788;28;20288;-74
2021/06/04 05:21:38;;;;;;;12.33;10.03;;;;;;;19.84;92.17;99771.81;4955834;28;20191;-74
2021/06/04 05:24:06;;;;;;;10.87;9.77;;;;;;;20.02;90.34;99780.97;4955928;28;20522;-73
2021/06/04 05:26:35;;;;;;;10.97;9.97;;;;;;;20.05;90.09;99771.63;4955277;28;20468;-73
2021/06/04 05:29:01;;;;;;;10.30;9.33;;;;;;;19.80;91.74;99776.69;4955499;29;20580;-73
2021/06/04 05:31:27;;;;;;;10.60;9.60;;;;;;;19.96;90.82;99781.56;4955363;29;20942;-73
2021/06/04 05:33:55;;;;;;;11.27;10.17;;;;;;;19.85;91.69;99785.28;4955307;29;20520;-73
2021/06/04 05:36:29;;;;;;;11.23;10.03;;;;;;;19.73;91.84;99787.31;4954882;28;20472;-74
2021/06/04 05:38:56;;;;;;;14.47;10.30;;;;;;;19.87;91.66;99788.75;4955168;29;20466;-72
2021/06/04 05:41:24;;;;;;;14.30;11.20;;;;;;;19.87;92.17;99786.00;4955017;29;20428;-73
2021/06/04 05:43:51;;;;;;;11.90;10.80;;;;;;;20.19;90.45;99788.44;4954784;28;20448;-74
2021/06/04 05:46:20;;;;;;;13.90;11.53;;;;;;;20.55;88.51;99782.31;4954758;29;20498;-75
2021/06/04 05:48:46;;;;;;;12.43;10.73;;;;;;;20.78;86.35;99788.28;4954724;28;20495;-72
2021/06/04 05:51:17;;;;;;;12.63;11.20;;;;;;;21.03;83.99;99801.31;4954815;29;20425;-72
2021/06/04 05:53:44;;;;;;;10.87;9.87;;;;;;;21.07;83.95;99795.53;4954159;29;20870;-74
2021/06/04 05:56:13;;;;;;;10.43;9.43;;;;;;;21.20;82.85;99791.41;4954341;29;20507;-73
2021/06/04 05:58:39;;;;;;;11.50;10.40;;;;;;;21.24;82.74;99791.97;4955019;29;20426;-73
2021/06/04 06:01:09;;;;;;;11.40;9.13;;;;;;;21.20;82.63;99798.78;4954125;29;20532;-74
2021/06/04 06:03:36;;;;;;;10.50;9.50;;;;;;;21.39;81.78;99790.44;4936346;29;20441;-74
2021/06/04 06:06:03;;;;;;;10.87;9.77;;;;;;;21.67;80.18;99790.41;4937459;28;20472;-74
2021/06/04 06:08:30;;;;;;;9.97;8.97;;;;;;;21.92;78.05;99793.41;4974283;28;20839;-74
2021/06/04 06:10:57;;;;;;;10.03;8.60;;;;;;;21.89;78.45;99796.44;4974113;28;20790;-73
2021/06/04 06:13:24;;;;;;;10.30;9.30;;;;;;;21.85;78.70;99804.13;4973486;28;20546;-73
2021/06/04 06:15:50;;;;;;;12.67;11.17;;;;;;;22.10;77.62;99801.63;4973739;28;20517;-73
2021/06/04 06:18:17;;;;;;;13.47;9.70;;;;;;;22.22;76.52;99795.72;4973957;28;20466;-74
2021/06/04 06:20:44;;;;;;;22.83;9.43;;;;;;;22.33;75.69;99799.25;4973892;28;20570;-73
2021/06/04 06:23:13;;;;;;;15.20;10.00;;;;;;;22.27;75.40;99787.91;4973531;28;20436;-73
2021/06/04 06:25:43;;;;;;;11.13;10.00;;;;;;;22.27;75.70;99796.13;4974102;28;20443;-73
2021/06/04 06:28:12;;;;;;;16.73;9.47;;;;;;;22.58;74.42;99801.13;4973593;28;20424;-72
2021/06/04 06:30:38;;;;;;;9.60;8.60;;;;;;;22.75;73.14;99799.38;4973509;28;20981;-72
2021/06/04 06:33:05;;;;;;;10.87;8.83;;;;;;;22.72;72.75;99791.44;4955434;28;20579;-73
2021/06/04 06:35:36;;;;;;;9.70;8.80;;;;;;;22.73;72.99;99797.81;4953854;29;20439;-74
2021/06/04 06:38:02;;;;;;;11.47;8.40;;;;;;;22.88;71.62;99801.63;4954054;29;20515;-73
2021/06/04 06:40:28;;;;;;;9.73;8.80;;;;;;;22.66;72.71;99801.19;4954134;29;20437;-74
2021/06/04 06:42:56;;;;;;;10.87;8.03;;;;;;;22.68;72.66;99803.75;4953751;29;20448;-74
2021/06/04 06:45:24;;;;;;;11.57;8.80;;;;;;;22.89;71.93;99806.97;4954287;28;20510;-72
2021/06/04 06:47:51;;;;;;;9.13;8.20;;;;;;;22.86;70.67;99809.19;4953975;29;20481;-73
2021/06/04 06:50:18;;;;;;;9.30;8.30;;;;;;;23.07;70.37;99809.69;4953270;29;20448;-74
2021/06/04 06:52:46;;;;;;;8.97;7.97;;;;;;;23.38;68.98;99814.63;4939243;29;20520;-72
2021/06/04 06:55:13;;;;;;;11.30;7.53;;;;;;;23.40;68.62;99812.53;4934762;29;20437;-73
2021/06/04 06:57:39;;;;;;;7.07;6.43;;;;;;;23.33;68.77;99810.63;4935084;29;20441;-73
2021/06/04 07:00:11;;;;;;;10.07;8.43;;;;;;;23.39;68.21;99807.22;4934643;29;20923;-73
2021/06/04 07:02:37;;;;;;;7.30;6.60;;;;;;;23.50;67.15;99805.03;4953449;29;20466;-72
2021/06/04 07:05:05;;;;;;;6.87;6.27;;;;;;;23.68;66.02;99809.53;4953803;28;20542;-74
2021/06/04 07:07:31;;;;;;;6.90;6.27;;;;;;;23.82;65.66;99811.66;4953600;28;20475;-74
2021/06/04 07:09:57;;;;;;;10.27;9.23;;;;;;;23.88;65.38;99805.47;4950476;29;20514;-74
2021/06/04 07:12:23;;;;;;;6.80;6.30;;;;;;;24.24;63.02;99804.28;4934425;29;21039;-75
2021/06/04 07:14:50;;;;;;;5.77;5.17;;;;;;;24.45;62.32;99807.38;4946528;29;20789;-74
2021/06/04 07:17:18;;;;;;;7.00;6.07;;;;;;;24.64;61.74;99811.66;4953877;29;20926;-74
2021/06/04 07:19:45;;;;;;;7.80;6.10;;;;;;;24.80;60.99;99812.66;4951897;28;20449;-75
2021/06/04 07:22:12;;;;;;;7.73;6.80;;;;;;;25.07;60.02;99814.97;4958634;28;20447;-73
2021/06/04 07:24:38;;;;;;;5.77;5.37;;;;;;;24.69;60.54;99805.63;4955887;28;20475;-74
2021/06/04 07:27:05;;;;;;;6.00;5.50;;;;;;;24.93;59.82;99810.22;4952908;29;20468;-73
2021/06/04 07:29:31;;;;;;;6.60;5.40;;;;;;;25.22;59.06;99820.66;4953180;29;21032;-73
2021/06/04 07:31:58;;;;;;;6.53;5.40;;;;;;;25.41;58.12;99815.72;4952865;29;20524;-73
2021/06/04 07:34:28;;;;;;;5.97;5.50;;;;;;;25.40;57.74;99814.03;4950745;28;20535;-73
2021/06/04 07:36:57;;;;;;;5.40;4.73;;;;;;;25.42;57.63;99810.06;4940515;29;20445;-73
2021/06/04 07:39:25;;;;;;;8.00;5.37;;;;;;;25.26;58.62;99816.50;4952728;29;20468;-73
2021/06/04 07:41:52;;;;;;;6.83;6.10;;;;;;;25.56;57.67;99822.22;4952545;29;20444;-73
2021/06/04 07:44:19;;;;;;;6.30;5.40;;;;;;;25.54;57.23;99822.38;4952837;28;20447;-74
2021/06/04 07:46:46;;;;;;;6.90;6.00;;;;;;;25.59;57.08;99817.16;4952695;28;20494;-73
2021/06/04 07:49:12;;;;;;;5.13;4.63;;;;;;;25.62;56.91;99824.25;4951843;28;20522;-74
2021/06/04 07:51:42;;;;;;;8.73;5.50;;;;;;;25.85;56.63;99827.03;4952882;29;20231;-73
2021/06/04 07:54:09;;;;;;;5.00;4.60;;;;;;;26.06;55.19;99822.78;4952968;29;20850;-74
2021/06/04 07:56:36;;;;;;;5.40;4.00;;;;;;;26.19;54.24;99829.38;4953187;29;20483;-76
2021/06/04 07:59:04;;;;;;;9.93;5.20;;;;;;;26.17;54.50;99825.97;4953213;29;20424;-73
2021/06/04 08:01:30;;;;;;;5.80;4.87;;;;;;;26.29;54.10;99831.03;4951508;28;20973;-73
2021/06/04 08:03:57;;;;;;;6.93;5.33;;;;;;;26.23;54.43;99821.63;4952691;29;20444;-75
2021/06/04 08:06:23;;;;;;;5.30;4.80;;;;;;;26.37;54.29;99815.28;4950853;29;20476;-74
2021/06/04 08:08:54;;;;;;;4.53;4.13;;;;;;;26.55;53.66;99816.88;4952788;29;20497;-73
2021/06/04 08:11:23;;;;;;;6.27;4.70;;;;;;;26.63;53.42;99809.34;4951968;29;20480;-74
2021/06/04 08:13:49;;;;;;;9.83;5.90;;;;;;;26.78;52.44;99814.03;4952504;29;20448;-74
2021/06/04 08:16:16;;;;;;;5.90;4.50;;;;;;;26.55;53.01;99816.88;4953123;29;20555;-74
2021/06/04 08:18:42;;;;;;;5.00;4.50;;;;;;;26.61;52.55;99811.44;4952665;29;20434;-73
2021/06/04 08:21:11;;;;;;;7.20;5.70;;;;;;;26.53;52.77;99808.72;4952725;29;20448;-74
2021/06/04 08:23:40;;;;;;;6.40;5.30;;;;;;;26.85;52.13;99812.22;4950186;29;20444;-75
2021/06/04 08:26:09;;;;;;;4.53;4.13;;;;;;;26.95;52.09;99809.19;4941494;29;20488;-74
2021/06/04 08:28:37;;;;;;;8.30;4.70;;;;;;;26.96;51.58;99809.00;4943800;29;20536;-74
2021/06/04 08:31:04;;;;;;;7.10;5.17;;;;;;;27.09;51.17;99816.63;4937907;29;20456;-74
2021/06/04 08:33:33;;;;;;;11.07;10.00;;;;;;;27.15;51.17;99807.53;4955103;28;20436;-73
2021/06/04 08:36:00;;;;;;;6.73;4.30;;;;;;;26.98;51.85;99804.13;4954989;29;20459;-74
2021/06/04 08:38:28;;;;;;;5.23;4.73;;;;;;;26.94;52.12;99800.03;4955307;28;20993;-74
2021/06/04 08:40:55;;;;;;;5.13;4.00;;;;;;;27.23;51.59;99804.72;4955876;28;20451;-74
2021/06/04 08:43:45;;;;;;;4.83;4.43;;;;;;;27.26;51.80;99797.94;4955128;28;20440;-74
2021/06/04 08:46:18;;;;;;;5.23;4.77;;;;;;;27.03;52.70;99790.59;4955420;29;21030;-73
2021/06/04 08:48:49;;;;;;;6.00;4.97;;;;;;;26.91;53.38;99786.63;4955501;28;20449;-74
2021/06/04 08:51:25;;;;;;;7.40;5.17;;;;;;;27.09;53.12;99791.75;4955692;28;20444;-73
2021/06/04 08:54:30;;;;;;;6.10;5.60;;;;;;;26.99;53.17;99789.25;4953989;28;20439;-73
2021/06/04 08:57:01;;;;;;;6.50;4.50;;;;;;;27.47;51.76;99788.84;4943643;28;20455;-74
2021/06/04 08:59:32;;;;;;;5.63;4.27;;;;;;;27.48;50.77;99787.81;4954336;28;20527;-73
2021/06/04 09:02:04;;;;;;;6.30;4.70;;;;;;;27.29;50.49;99783.72;4954011;29;20443;-74
2021/06/04 09:04:34;;;;;;;5.37;4.47;;;;;;;27.46;50.09;99781.63;4955489;28;20880;-74
2021/06/04 09:07:05;;;;;;;6.20;4.17;;;;;;;27.76;49.53;99785.13;4953035;28;20534;-74
2021/06/04 09:09:36;;;;;;;7.10;5.23;;;;;;;27.62;49.83;99786.91;4954269;28;20453;-74
2021/06/04 09:12:07;;;;;;;6.63;4.37;;;;;;;27.84;49.70;99792.50;4955078;28;21018;-74
2021/06/04 09:14:34;;;;;;;6.00;5.00;;;;;;;27.92;48.65;99797.91;4955020;28;20441;-73
2021/06/04 09:17:11;;;;;;;8.60;4.43;;;;;;;27.93;48.80;99791.31;4953995;28;20495;-74
2021/06/04 09:19:58;;;;;;;6.87;4.60;;;;;;;28.06;48.17;99787.81;4954315;29;20440;-75
2021/06/04 09:22:26;;;;;;;5.50;4.90;;;;;;;28.17;48.06;99795.56;4954834;28;20454;-74
2021/06/04 09:24:52;;;;;;;6.50;4.00;;;;;;;28.19;48.28;99796.22;4953334;28;21271;-74
2021/06/04 09:27:28;;;;;;;4.77;3.87;;;;;;;28.16;48.08;99793.03;4954654;28;20591;-74
2021/06/04 09:30:11;;;;;;;5.33;3.70;;;;;;;28.14;48.32;99789.59;4954354;28;20447;-74
2021/06/04 09:32:39;;;;;;;5.13;4.63;;;;;;;28.18;48.05;99788.16;4954314;28;20906;-73
2021/06/04 09:35:12;;;;;;;10.83;4.90;;;;;;;28.22;48.32;99781.13;4954150;28;20527;-73
2021/06/04 09:37:39;;;;;;;5.43;4.60;;;;;;;28.24;48.30;99784.56;4953114;28;20447;-74
2021/06/04 09:40:20;;;;;;;10.37;4.80;;;;;;;28.38;48.42;99783.63;4948041;29;20444;-75
2021/06/04 09:42:54;;;;;;;9.17;4.93;;;;;;;28.36;48.34;99785.75;4952768;28;20519;-74
2021/06/04 09:45:28;;;;;;;4.63;4.07;;;;;;;28.44;47.53;99780.03;4945470;29;20442;-75
2021/06/04 09:48:04;;;;;;;5.20;4.70;;;;;;;28.46;47.67;99780.69;4953959;28;20488;-74
2021/06/04 09:50:33;;;;;;;5.57;4.90;;;;;;;28.54;47.72;99793.59;4954113;29;20463;-75
2021/06/04 09:53:09;;;;;;;6.27;4.87;;;;;;;28.25;47.84;99786.28;4954123;29;20450;-75
2021/06/04 09:55:38;;;;;;;6.57;4.37;;;;;;;28.32;48.11;99776.13;4953786;29;20436;-74
2021/06/04 09:58:29;;;;;;;5.43;4.37;;;;;;;28.37;48.52;99773.59;4954758;28;20887;-74
2021/06/04 10:01:11;;;;;;;8.40;5.73;;;;;;;28.39;49.28;99777.03;4936890;29;20528;-74
2021/06/04 10:03:54;;;;;;;8.07;5.17;;;;;;;28.46;48.01;99774.31;4935375;29;20450;-74
2021/06/04 10:06:25;;;;;;;7.43;4.60;;;;;;;28.35;46.77;99774.88;4934783;29;20516;-74
2021/06/04 10:08:54;;;;;;;8.30;4.57;;;;;;;28.37;45.38;99776.38;4937587;29;20955;-74
2021/06/04 10:11:24;;;;;;;5.10;3.83;;;;;;;28.55;46.11;99781.44;4954047;29;20630;-74
2021/06/04 10:13:55;;;;;;;12.03;5.10;;;;;;;28.60;45.99;99778.06;4954432;29;20855;-76
2021/06/04 10:16:39;;;;;;;7.37;4.67;;;;;;;28.65;46.21;99764.47;4952423;28;20440;-74
2021/06/04 10:19:18;;;;;;;7.33;4.40;;;;;;;28.93;45.72;99758.88;4954135;29;20432;-74
2021/06/04 10:21:44;;;;;;;8.03;4.70;;;;;;;28.84;46.16;99765.66;4953863;29;20882;-73
2021/06/04 10:24:25;;;;;;;4.77;4.27;;;;;;;28.79;45.88;99755.19;4953419;28;20880;-74
2021/06/04 10:26:55;;;;;;;5.30;4.90;;;;;;;28.56;45.98;99752.72;4953444;29;20471;-74
2021/06/04 10:29:21;;;;;;;8.23;4.50;;;;;;;28.84;45.23;99751.81;4953480;29;20458;-73
2021/06/04 10:31:53;;;;;;;5.60;4.70;;;;;;;28.73;44.96;99749.63;4953856;29;20957;-73
2021/06/04 10:34:57;;;;;;;8.00;5.00;;;;;;;29.28;43.78;99754.19;4953675;29;20866;-73
2021/06/04 10:37:29;;;;;;;8.77;6.53;;;;;;;29.34;43.82;99740.56;4953467;29;20441;-74
2021/06/04 10:40:04;;;;;;;5.27;4.77;;;;;;;29.36;43.51;99736.50;4953898;29;20460;-74
2021/06/04 10:42:42;;;;;;;6.37;4.97;;;;;;;28.84;44.70;99735.19;4953927;29;20515;-74
2021/06/04 10:45:17;;;;;;;6.93;4.60;;;;;;;28.97;44.61;99734.38;4953786;29;20475;-74
2021/06/04 10:47:59;;;;;;;7.87;5.00;;;;;;;29.06;44.01;99741.50;4953412;29;20650;-74
2021/06/04 10:50:29;;;;;;;4.70;4.30;;;;;;;29.12;43.77;99735.13;4952287;28;20448;-73
2021/06/04 10:53:01;;;;;;;6.73;6.13;;;;;;;29.30;43.52;99735.41;4952854;28;20441;-75
2021/06/04 10:55:31;;;;;;;4.93;4.30;;;;;;;28.92;43.16;99728.59;4941645;29;20544;-73
2021/06/04 10:58:10;;;;;;;5.80;4.17;;;;;;;28.81;43.61;99735.56;4952359;29;21121;-75
2021/06/04 11:00:44;;;;;;;6.13;4.43;;;;;;;28.90;43.81;99738.00;4944477;29;20477;-74
2021/06/04 11:03:17;;;;;;;5.63;5.13;;;;;;;28.34;45.24;99732.47;4934780;29;20979;-73
2021/06/04 11:05:49;;;;;;;8.50;5.00;;;;;;;28.50;44.89;99731.34;4934613;29;20750;-74
2021/06/04 11:08:24;;;;;;;5.90;4.90;;;;;;;28.47;43.75;99727.09;4947977;29;20574;-74
2021/06/04 11:10:57;;;;;;;5.30;4.90;;;;;;;28.46;43.78;99719.78;4953196;29;20501;-74
2021/06/04 11:13:41;;;;;;;5.60;5.10;;;;;;;29.01;43.11;99714.38;4953253;29;20506;-72
2021/06/04 11:16:14;;;;;;;13.60;4.70;;;;;;;29.06;42.99;99713.78;4953407;29;20436;-73
2021/06/04 11:18:46;;;;;;;7.23;4.50;;;;;;;28.98;43.37;99709.25;4953199;29;20436;-73
2021/06/04 11:21:24;;;;;;;4.97;4.30;;;;;;;28.64;44.45;99696.28;4953472;29;20413;-74
2021/06/04 11:23:56;;;;;;;12.40;4.20;;;;;;;28.98;44.67;99703.69;4953282;29;20448;-73
2021/06/04 11:26:28;;;;;;;7.07;4.57;;;;;;;28.94;44.67;99696.00;4946216;29;20441;-74
2021/06/04 11:29:00;;;;;;;5.33;4.80;;;;;;;28.82;44.20;99698.50;4933895;29;20433;-74
2021/06/04 11:31:37;;;;;;;5.47;5.03;;;;;;;28.84;43.93;99688.06;4947920;29;20899;-74
2021/06/04 11:34:15;;;;;;;6.70;5.20;;;;;;;29.05;43.22;99689.88;4953078;29;20480;-75
2021/06/04 11:36:46;;;;;;;4.97;4.20;;;;;;;28.99;43.71;99690.69;4952644;29;20435;-74
2021/06/04 11:39:17;;;;;;;8.93;5.13;;;;;;;29.09;44.26;99680.97;4951429;29;20447;-74
2021/06/04 11:41:48;;;;;;;7.73;4.50;;;;;;;29.41;43.38;99678.50;4951931;28;20938;-74
2021/06/04 11:44:25;;;;;;;6.73;5.20;;;;;;;29.47;43.85;99671.25;4953382;29;20459;-74